createdAt,value
2023-04-22T00:02:17.320Z,10.77
2023-04-22T00:04:46.647Z,9.23
2023-04-22T00:07:15.798Z,8.90
2023-04-22T00:09:43.221Z,8.50
2023-04-22T00:12:13.295Z,7.67
2023-04-22T00:14:40.562Z,8.97
2023-04-22T00:17:07.557Z,12.33
2023-04-22T00:19:35.128Z,10.53
2023-04-22T00:22:02.394Z,7.17
2023-04-22T00:24:29.995Z,8.90
2023-04-22T00:26:57.077Z,9.53
2023-04-22T00:29:25.948Z,8.13
2023-04-22T00:31:53.030Z,6.87
2023-04-22T00:34:20.106Z,10.80
2023-04-22T00:36:48.200Z,9.77
2023-04-22T00:39:15.435Z,7.43
2023-04-22T00:41:43.005Z,11.17
2023-04-22T00:44:11.270Z,8.73
2023-04-22T00:46:39.568Z,6.83
2023-04-22T00:49:08.093Z,8.33
2023-04-22T00:51:35.355Z,9.47
2023-04-22T00:54:03.524Z,6.60
2023-04-22T00:56:31.887Z,7.67
2023-04-22T00:58:59.992Z,10.73
2023-04-22T01:01:27.469Z,10.70
2023-04-22T01:03:54.959Z,8.50
2023-04-22T01:06:24.021Z,9.17
2023-04-22T01:08:51.361Z,7.97
2023-04-22T01:11:18.990Z,10.47
2023-04-22T01:13:46.560Z,9.67
2023-04-22T01:16:13.823Z,7.27
2023-04-22T01:18:40.915Z,7.63
2023-04-22T01:21:08.065Z,7.73
2023-04-22T01:23:35.160Z,8.30
2023-04-22T01:26:02.238Z,6.43
2023-04-22T01:28:29.453Z,9.67
2023-04-22T01:30:56.417Z,5.83
2023-04-22T01:33:23.928Z,5.20
2023-04-22T01:35:51.225Z,8.17
2023-04-22T01:38:18.345Z,7.67
2023-04-22T01:40:45.310Z,7.50
2023-04-22T01:43:12.324Z,8.23
2023-04-22T01:45:39.961Z,7.37
2023-04-22T01:48:07.140Z,6.10
2023-04-22T01:50:34.606Z,6.77
2023-04-22T01:53:01.971Z,7.53
2023-04-22T01:55:29.699Z,9.00
2023-04-22T01:57:56.685Z,9.30
2023-04-22T02:00:23.635Z,10.03
2023-04-22T02:02:50.789Z,6.77
2023-04-22T02:05:18.149Z,7.17
2023-04-22T02:07:46.738Z,7.97
2023-04-22T02:10:16.791Z,9.80
2023-04-22T02:12:44.767Z,9.63
2023-04-22T02:15:14.427Z,9.07
2023-04-22T02:17:42.410Z,5.67
2023-04-22T02:20:11.487Z,8.17
2023-04-22T02:22:40.048Z,8.00
2023-04-22T02:25:07.836Z,9.47
2023-04-22T02:27:34.824Z,7.83
2023-04-22T02:30:01.797Z,11.03
2023-04-22T02:32:31.618Z,10.50
2023-04-22T02:34:59.042Z,10.17
2023-04-22T02:37:26.288Z,10.70
2023-04-22T02:39:54.363Z,10.17
2023-04-22T02:42:21.269Z,6.93
2023-04-22T02:44:48.506Z,8.70
2023-04-22T02:47:16.892Z,8.17
2023-04-22T02:49:43.806Z,11.40
2023-04-22T02:52:11.059Z,9.37
2023-04-22T02:54:38.027Z,10.80
2023-04-22T02:57:04.968Z,7.40
2023-04-22T02:59:32.203Z,8.50
2023-04-22T03:02:00.899Z,6.63
2023-04-22T03:04:42.276Z,5.07
2023-04-22T03:07:09.234Z,13.83
2023-04-22T03:09:36.623Z,7.37
2023-04-22T03:12:04.246Z,7.50
2023-04-22T03:14:31.379Z,6.43
2023-04-22T03:16:59.508Z,8.13
2023-04-22T03:19:26.433Z,9.53
2023-04-22T03:21:53.400Z,5.07
2023-04-22T03:24:21.522Z,11.33
2023-04-22T03:26:51.918Z,7.13
2023-04-22T03:29:19.250Z,6.67
2023-04-22T03:31:46.239Z,10.03
2023-04-22T03:34:13.331Z,16.50
2023-04-22T03:36:41.680Z,7.70
2023-04-22T03:39:08.800Z,9.67
2023-04-22T03:41:35.793Z,11.77
2023-04-22T03:44:02.837Z,8.87
2023-04-22T03:46:32.139Z,11.23
2023-04-22T03:49:08.320Z,13.50
2023-04-22T03:51:35.949Z,10.10
2023-04-22T03:54:07.877Z,7.93
2023-04-22T03:56:41.266Z,13.93
2023-04-22T03:59:09.369Z,9.50
2023-04-22T04:01:37.051Z,8.47
2023-04-22T04:04:11.020Z,7.27
2023-04-22T04:06:52.742Z,11.27
2023-04-22T04:12:04.136Z,8.97
2023-04-22T04:14:35.856Z,7.43
2023-04-22T04:17:04.646Z,10.57
2023-04-22T04:19:34.913Z,9.97
2023-04-22T04:22:02.868Z,10.53
2023-04-22T04:24:36.762Z,10.50
2023-04-22T04:27:11.998Z,10.67
2023-04-22T04:29:45.660Z,8.60
2023-04-22T04:32:18.409Z,11.07
2023-04-22T04:34:45.951Z,14.83
2023-04-22T04:37:14.914Z,11.87
2023-04-22T04:39:55.654Z,11.53
2023-04-22T04:42:25.933Z,10.73
2023-04-22T04:45:00.563Z,12.77
2023-04-22T04:47:34.128Z,8.90
2023-04-22T04:50:12.501Z,10.90
2023-04-22T04:52:40.090Z,10.13
2023-04-22T04:55:07.478Z,14.60
2023-04-22T04:57:37.242Z,11.80
2023-04-22T05:00:07.319Z,11.27
2023-04-22T05:02:34.648Z,10.20
2023-04-22T05:05:03.206Z,11.33
2023-04-22T05:07:30.718Z,10.37
2023-04-22T05:09:58.295Z,13.67
2023-04-22T05:12:25.636Z,13.03
2023-04-22T05:14:53.448Z,9.07
2023-04-22T05:17:21.430Z,10.30
2023-04-22T05:19:49.193Z,5.97
2023-04-22T05:22:17.954Z,8.20
2023-04-22T05:24:45.279Z,7.47
2023-04-22T05:27:12.480Z,7.47
2023-04-22T05:29:39.891Z,11.50
2023-04-22T05:32:08.958Z,9.50
2023-04-22T05:34:36.198Z,7.57
2023-04-22T05:37:04.361Z,8.17
2023-04-22T05:39:32.811Z,14.20
2023-04-22T05:42:02.723Z,14.40
2023-04-22T05:44:32.433Z,9.20
2023-04-22T05:46:59.540Z,11.23
2023-04-22T05:49:27.656Z,9.37
2023-04-22T05:52:12.265Z,6.97
2023-04-22T05:55:17.637Z,9.67
2023-04-22T05:57:47.487Z,7.10
2023-04-22T06:00:40.615Z,10.23
2023-04-22T06:03:25.196Z,9.97
2023-04-22T06:05:53.118Z,7.13
2023-04-22T06:08:20.431Z,7.90
2023-04-22T06:10:51.330Z,8.20
2023-04-22T06:13:18.364Z,8.07
2023-04-22T06:15:45.314Z,6.97
2023-04-22T06:18:12.318Z,12.03
2023-04-22T06:20:39.680Z,8.37
2023-04-22T06:23:06.691Z,7.77
2023-04-22T06:25:33.824Z,7.67
2023-04-22T06:28:01.183Z,6.70
2023-04-22T06:30:28.936Z,7.83
2023-04-22T06:32:56.223Z,6.37
2023-04-22T06:35:25.087Z,7.13
2023-04-22T06:37:57.342Z,6.93
2023-04-22T06:40:29.260Z,11.37
2023-04-22T06:43:15.736Z,14.70
2023-04-22T06:46:10.589Z,8.97
2023-04-22T06:49:13.086Z,6.30
2023-04-22T06:52:09.877Z,7.73
2023-04-22T06:54:42.049Z,10.43
2023-04-22T06:57:09.158Z,9.07
2023-04-22T06:59:36.181Z,8.27
2023-04-22T07:02:03.635Z,9.50
2023-04-22T07:04:35.116Z,11.10
2023-04-22T07:07:21.105Z,7.77
2023-04-22T07:09:49.155Z,4.30
2023-04-22T07:12:16.260Z,10.97
2023-04-22T07:14:44.840Z,6.23
2023-04-22T07:17:12.445Z,10.47
2023-04-22T07:19:39.830Z,7.90
2023-04-22T07:22:07.076Z,5.40
2023-04-22T07:24:37.597Z,7.90
2023-04-22T07:30:52.854Z,8.10
2023-04-22T07:33:19.839Z,5.50
2023-04-22T07:35:47.298Z,7.03
2023-04-22T07:38:14.748Z,11.13
2023-04-22T07:40:41.893Z,6.43
2023-04-22T07:43:08.893Z,10.03
2023-04-22T07:45:36.124Z,8.37
2023-04-22T07:48:04.469Z,6.30
2023-04-22T07:50:31.680Z,9.27
2023-04-22T07:52:58.645Z,8.27
2023-04-22T07:55:25.789Z,10.53
2023-04-22T07:57:52.735Z,7.77
2023-04-22T08:00:19.714Z,7.00
2023-04-22T08:02:47.649Z,8.80
2023-04-22T08:05:14.805Z,9.57
2023-04-22T08:07:42.230Z,7.60
2023-04-22T08:10:09.836Z,5.20
2023-04-22T08:12:37.238Z,5.37
2023-04-22T08:15:04.632Z,5.37
2023-04-22T08:17:31.951Z,8.30
2023-04-22T08:19:59.201Z,7.50
2023-04-22T08:22:27.599Z,7.33
2023-04-22T08:24:54.642Z,8.07
2023-04-22T08:27:22.236Z,6.47
2023-04-22T08:29:49.186Z,6.30
2023-04-22T08:32:16.684Z,7.50
2023-04-22T08:38:04.388Z,9.03
2023-04-22T08:40:31.370Z,14.63
2023-04-22T08:42:58.492Z,10.77
2023-04-22T08:45:25.641Z,6.73
2023-04-22T08:47:54.256Z,15.13
2023-04-22T08:50:25.403Z,15.40
2023-04-22T08:52:52.709Z,10.20
2023-04-22T08:55:19.889Z,9.43
2023-04-22T08:57:48.335Z,9.10
2023-04-22T09:00:16.461Z,8.83
2023-04-22T09:02:45.841Z,9.30
2023-04-22T09:05:14.894Z,11.57
2023-04-22T09:07:42.290Z,8.20
2023-04-22T09:10:11.901Z,16.57
2023-04-22T09:12:41.406Z,11.10
2023-04-22T09:15:09.845Z,12.67
2023-04-22T09:17:38.518Z,9.17
2023-04-22T09:20:08.885Z,9.47
2023-04-22T09:22:38.847Z,11.03
2023-04-22T09:25:06.621Z,9.10
2023-04-22T09:27:35.730Z,8.13
2023-04-22T09:30:09.145Z,11.67
2023-04-22T09:32:36.254Z,7.83
2023-04-22T09:35:03.905Z,8.03
2023-04-22T09:37:42.519Z,8.33
2023-04-22T09:40:18.363Z,5.27
2023-04-22T09:42:51.480Z,7.50
2023-04-22T09:45:39.314Z,9.20
2023-04-22T09:48:15.006Z,9.23
2023-04-22T09:50:50.338Z,9.53
2023-04-22T09:53:19.655Z,6.43
2023-04-22T09:55:49.970Z,7.67
2023-04-22T09:59:08.163Z,7.20
2023-04-22T10:01:44.286Z,6.87
2023-04-22T10:04:13.719Z,4.67
2023-04-22T10:06:41.331Z,12.10
2023-04-22T10:09:09.841Z,12.40
2023-04-22T10:11:37.638Z,5.60
2023-04-22T10:14:05.460Z,6.73
2023-04-22T10:16:34.836Z,10.67
2023-04-22T10:19:04.600Z,8.30
2023-04-22T10:21:32.581Z,6.57
2023-04-22T10:24:00.800Z,7.10
2023-04-22T10:26:42.593Z,5.10
2023-04-22T10:29:16.777Z,10.70
2023-04-22T10:31:45.859Z,7.60
2023-04-22T10:34:15.029Z,9.40
2023-04-22T10:37:07.178Z,7.83
2023-04-22T10:39:34.275Z,6.63
2023-04-22T10:42:06.846Z,8.70
2023-04-22T10:44:50.669Z,11.50
2023-04-22T10:47:37.772Z,6.60
2023-04-22T10:50:24.719Z,6.70
2023-04-22T10:52:59.775Z,9.30
2023-04-22T10:55:50.823Z,17.00
2023-04-22T10:58:22.598Z,12.60
2023-04-22T11:00:58.013Z,17.73
2023-04-22T11:03:28.537Z,13.23
2023-04-22T11:09:40.079Z,11.80
2023-04-22T11:12:35.104Z,7.43
2023-04-22T11:15:12.408Z,8.27
2023-04-22T11:17:42.507Z,7.73
2023-04-22T11:20:11.006Z,7.33
2023-04-22T11:22:39.834Z,6.97
2023-04-22T11:25:08.313Z,7.40
2023-04-22T11:27:35.360Z,11.00
2023-04-22T11:30:14.975Z,14.10
2023-04-22T11:32:48.230Z,6.67
2023-04-22T11:35:26.549Z,11.43
2023-04-22T11:38:05.919Z,10.17
2023-04-22T11:40:45.663Z,10.57
2023-04-22T11:43:12.977Z,11.37
2023-04-22T11:45:40.649Z,8.47
2023-04-22T11:48:11.155Z,11.27
2023-04-22T11:50:40.826Z,10.43
2023-04-22T11:53:18.162Z,14.23
2023-04-22T11:55:46.806Z,10.70
2023-04-22T11:58:19.701Z,8.90
2023-04-22T12:00:49.822Z,9.03
2023-04-22T12:03:27.043Z,10.20
2023-04-22T12:05:59.323Z,7.57
2023-04-22T12:08:33.770Z,13.07
2023-04-22T12:11:03.896Z,12.40
2023-04-22T12:13:33.426Z,6.80
2023-04-22T12:16:02.833Z,9.73
2023-04-22T12:18:38.506Z,9.87
2023-04-22T12:21:05.505Z,10.77
2023-04-22T12:23:45.863Z,12.53
2023-04-22T12:26:13.508Z,15.83
2023-04-22T12:28:41.625Z,11.03
2023-04-22T12:31:09.949Z,12.53
2023-04-22T12:33:37.885Z,11.40
2023-04-22T12:36:06.511Z,13.43
2023-04-22T12:38:34.089Z,15.03
2023-04-22T12:41:02.555Z,14.00
2023-04-22T12:43:29.707Z,11.70
2023-04-22T12:45:56.692Z,11.70
2023-04-22T12:48:23.631Z,12.17
2023-04-22T12:50:50.854Z,12.33
2023-04-22T12:53:17.874Z,14.20
2023-04-22T12:55:46.130Z,10.37
2023-04-22T12:58:13.307Z,10.50
2023-04-22T13:00:40.934Z,11.00
2023-04-22T13:03:08.045Z,14.93
2023-04-22T13:05:35.190Z,11.83
2023-04-22T13:08:07.195Z,11.47
2023-04-22T13:10:35.798Z,10.30
2023-04-22T13:15:34.861Z,9.43
2023-04-22T13:18:02.069Z,10.23
2023-04-22T13:20:29.180Z,9.40
2023-04-22T13:22:56.159Z,12.53
2023-04-22T13:25:23.108Z,10.40
2023-04-22T13:27:50.190Z,10.33
2023-04-22T13:30:17.068Z,11.57
2023-04-22T13:32:44.075Z,10.27
2023-04-22T13:35:11.432Z,9.10
2023-04-22T13:37:39.383Z,8.50
2023-04-22T13:40:07.021Z,8.73
2023-04-22T13:42:34.324Z,13.10
2023-04-22T13:45:01.416Z,11.53
2023-04-22T13:47:32.181Z,12.23
2023-04-22T13:50:00.792Z,12.67
2023-04-22T13:52:27.953Z,12.67
2023-04-22T13:54:54.938Z,10.57
2023-04-22T13:57:23.370Z,6.77
2023-04-22T13:59:50.796Z,6.43
2023-04-22T14:02:18.080Z,6.57
2023-04-22T14:04:45.141Z,7.03
2023-04-22T14:07:12.721Z,13.50
2023-04-22T14:09:39.823Z,8.37
2023-04-22T14:12:08.152Z,8.00
2023-04-22T14:14:35.065Z,8.33
2023-04-22T14:17:02.108Z,7.33
2023-04-22T14:19:30.448Z,10.27
2023-04-22T14:21:57.953Z,8.53
2023-04-22T14:24:25.685Z,7.63
2023-04-22T14:26:53.926Z,8.80
2023-04-22T14:29:21.087Z,7.83
2023-04-22T14:31:49.882Z,9.20
2023-04-22T14:34:17.302Z,9.27
2023-04-22T14:36:44.337Z,10.77
2023-04-22T14:39:11.881Z,8.57
2023-04-22T14:44:40.244Z,8.00
2023-04-22T14:47:07.202Z,10.20
2023-04-22T14:49:34.267Z,11.90
2023-04-22T14:52:01.710Z,9.23
2023-04-22T14:54:28.935Z,7.73
2023-04-22T14:56:56.301Z,16.43
2023-04-22T14:59:23.349Z,11.17
2023-04-22T15:01:50.502Z,19.13
2023-04-22T15:04:19.268Z,9.17
2023-04-22T15:06:46.555Z,6.63
2023-04-22T15:09:13.819Z,11.10
2023-04-22T15:11:40.941Z,10.00
2023-04-22T15:14:07.959Z,11.43
2023-04-22T15:16:35.124Z,8.67
2023-04-22T15:19:02.256Z,11.20
2023-04-22T15:21:29.222Z,7.70
2023-04-22T15:23:56.401Z,21.13
2023-04-22T15:26:23.610Z,20.37
2023-04-22T15:28:51.049Z,11.27
2023-04-22T15:31:20.734Z,9.77
2023-04-22T15:33:47.750Z,10.37
2023-04-22T15:36:18.220Z,14.50
2023-04-22T15:38:45.404Z,11.43
2023-04-22T15:41:12.810Z,11.03
2023-04-22T15:43:39.850Z,12.20
2023-04-22T15:46:08.546Z,11.93
2023-04-22T15:48:35.781Z,11.00
2023-04-22T15:51:02.895Z,12.93
2023-04-22T15:53:29.935Z,15.93
2023-04-22T15:55:58.120Z,13.40
2023-04-22T15:58:25.045Z,8.00
2023-04-22T16:00:52.001Z,11.00
2023-04-22T16:03:19.358Z,17.60
2023-04-22T16:05:46.518Z,19.90
2023-04-22T16:08:14.570Z,20.93
2023-04-22T16:10:41.539Z,11.17
2023-04-22T16:13:08.883Z,13.30
2023-04-22T16:15:35.902Z,16.50
2023-04-22T16:18:04.972Z,14.97
2023-04-22T16:20:32.147Z,18.83
2023-04-22T16:22:59.484Z,22.13
2023-04-22T16:25:29.532Z,13.87
2023-04-22T16:27:56.590Z,21.10
2023-04-22T16:30:24.041Z,11.53
2023-04-22T16:32:51.163Z,20.13
2023-04-22T16:35:18.332Z,19.57
2023-04-22T16:37:46.977Z,19.37
2023-04-22T16:40:14.256Z,27.03
2023-04-22T16:42:41.209Z,19.00
2023-04-22T16:45:08.605Z,16.97
2023-04-22T16:47:35.636Z,18.67
2023-04-22T16:50:02.671Z,11.40
2023-04-22T16:52:32.075Z,22.40
2023-04-22T16:54:58.970Z,13.13
2023-04-22T16:57:25.990Z,11.13
2023-04-22T16:59:52.928Z,12.10
2023-04-22T17:02:20.071Z,16.27
2023-04-22T17:04:47.186Z,15.57
2023-04-22T17:07:14.296Z,16.40
2023-04-22T17:09:41.490Z,17.73
2023-04-22T17:12:08.877Z,13.83
2023-04-22T17:14:35.820Z,20.00
2023-04-22T17:17:02.921Z,21.20
2023-04-22T17:19:29.916Z,20.73
2023-04-22T17:21:56.847Z,16.53
2023-04-22T17:24:24.932Z,15.80
2023-04-22T17:26:51.959Z,20.07
2023-04-22T17:29:21.741Z,15.00
2023-04-22T17:31:50.036Z,16.70
2023-04-22T17:34:17.232Z,18.40
2023-04-22T17:36:44.185Z,17.53
2023-04-22T17:39:11.825Z,17.93
2023-04-22T17:41:38.783Z,18.13
2023-04-22T17:44:08.852Z,20.53
2023-04-22T17:46:35.977Z,14.90
2023-04-22T17:49:03.156Z,13.80
2023-04-22T17:51:30.108Z,15.97
2023-04-22T17:53:57.221Z,11.97
2023-04-22T17:56:25.212Z,13.33
2023-04-22T17:58:52.294Z,20.07
2023-04-22T18:01:19.458Z,23.80
2023-04-22T18:03:46.700Z,26.33
2023-04-22T18:06:13.944Z,22.90
2023-04-22T18:08:41.059Z,26.53
2023-04-22T18:11:08.422Z,16.40
2023-04-22T18:13:35.478Z,22.93
2023-04-22T18:16:02.498Z,19.60
2023-04-22T18:18:29.492Z,19.77
2023-04-22T18:20:56.746Z,23.07
2023-04-22T18:23:23.696Z,22.57
2023-04-22T18:25:50.695Z,22.40
2023-04-22T18:28:17.637Z,24.13
2023-04-22T18:30:44.791Z,19.33
2023-04-22T18:33:13.450Z,24.13
2023-04-22T18:35:42.069Z,23.07
2023-04-22T18:38:09.716Z,25.80
2023-04-22T18:40:37.474Z,30.63
2023-04-22T18:43:06.488Z,26.37
2023-04-22T18:45:35.029Z,21.23
2023-04-22T18:48:02.787Z,17.47
2023-04-22T18:50:30.791Z,16.77
2023-04-22T18:53:01.796Z,15.10
2023-04-22T18:55:29.700Z,15.30
2023-04-22T18:57:57.415Z,11.37
2023-04-22T19:00:26.692Z,15.23
2023-04-22T19:02:57.455Z,17.13
2023-04-22T19:05:25.140Z,21.80
2023-04-22T19:07:52.265Z,19.70
2023-04-22T19:10:23.050Z,20.07
2023-04-22T19:12:51.760Z,20.93
2023-04-22T19:15:21.458Z,17.17
2023-04-22T19:17:48.948Z,18.53
2023-04-22T19:20:16.790Z,22.03
2023-04-22T19:22:44.136Z,14.80
2023-04-22T19:25:11.299Z,17.57
2023-04-22T19:27:38.415Z,14.43
2023-04-22T19:30:06.426Z,16.73
2023-04-22T19:32:34.532Z,14.70
2023-04-22T19:35:04.013Z,13.30
2023-04-22T19:37:31.488Z,16.80
2023-04-22T19:39:58.441Z,14.17
2023-04-22T19:42:25.394Z,13.10
2023-04-22T19:44:52.423Z,15.43
2023-04-22T19:47:19.608Z,17.60
2023-04-22T19:49:46.921Z,12.90
2023-04-22T19:52:15.674Z,18.67
2023-04-22T19:54:45.911Z,20.33
2023-04-22T19:57:15.664Z,13.07
2023-04-22T19:59:44.894Z,14.10
2023-04-22T20:02:12.246Z,14.00
2023-04-22T20:04:39.565Z,17.80
2023-04-22T20:07:07.181Z,12.23
2023-04-22T20:09:35.079Z,13.17
2023-04-22T20:12:03.415Z,20.30
2023-04-22T20:14:31.841Z,18.20
2023-04-22T20:16:58.983Z,17.50
2023-04-22T20:19:27.678Z,19.87
2023-04-22T20:21:57.282Z,15.03
2023-04-22T20:24:27.746Z,14.93
2023-04-22T20:26:56.346Z,13.70
2023-04-22T20:29:24.213Z,18.90
2023-04-22T20:31:51.429Z,13.80
2023-04-22T20:34:18.662Z,10.40
2023-04-22T20:36:46.313Z,11.30
2023-04-22T20:39:14.343Z,11.83
2023-04-22T20:41:42.043Z,17.27
2023-04-22T20:44:09.277Z,18.50
2023-04-22T20:46:37.626Z,13.70
2023-04-22T20:49:04.924Z,14.10
2023-04-22T20:51:32.158Z,12.37
2023-04-22T20:53:59.174Z,16.30
2023-04-22T20:56:27.365Z,17.20
2023-04-22T20:58:54.426Z,14.43
2023-04-22T21:01:21.459Z,16.53
2023-04-22T21:03:51.994Z,20.50
2023-04-22T21:06:20.713Z,15.00
2023-04-22T21:08:49.456Z,15.07
2023-04-22T21:11:17.521Z,18.07
2023-04-22T21:13:45.236Z,17.03
2023-04-22T21:16:18.638Z,19.33
2023-04-22T21:18:46.264Z,17.97
2023-04-22T21:21:17.616Z,14.63
2023-04-22T21:23:44.890Z,17.03
2023-04-22T21:26:13.958Z,18.83
2023-04-22T21:28:41.507Z,19.20
2023-04-22T21:31:08.732Z,23.90
2023-04-22T21:33:35.715Z,21.00
2023-04-22T21:36:02.844Z,12.30
2023-04-22T21:38:30.103Z,14.73
2023-04-22T21:40:57.101Z,14.00
2023-04-22T21:43:24.069Z,15.40
2023-04-22T21:45:51.108Z,13.17
2023-04-22T21:48:18.259Z,17.90
2023-04-22T21:50:45.194Z,13.93
2023-04-22T21:53:12.342Z,11.00
2023-04-22T21:55:39.522Z,13.20
2023-04-22T21:58:06.464Z,12.77
2023-04-22T22:00:33.741Z,12.50
2023-04-22T22:03:01.315Z,11.17
2023-04-22T22:05:28.519Z,12.70
2023-04-22T22:07:59.976Z,9.30
2023-04-22T22:10:27.423Z,15.60
2023-04-22T22:12:54.347Z,12.17
2023-04-22T22:15:21.373Z,15.03
2023-04-22T22:17:48.472Z,18.13
2023-04-22T22:20:18.125Z,14.30
2023-04-22T22:22:45.169Z,11.27
2023-04-22T22:25:14.372Z,13.70
2023-04-22T22:27:47.174Z,11.80
2023-04-22T22:30:18.809Z,11.20
2023-04-22T22:32:46.297Z,10.67
2023-04-22T22:35:13.733Z,10.43
2023-04-22T22:37:41.296Z,12.73
2023-04-22T22:40:09.058Z,11.83
2023-04-22T22:42:36.391Z,10.23
2023-04-22T22:45:05.250Z,10.83
2023-04-22T22:47:33.501Z,12.43
2023-04-22T22:50:00.673Z,9.63
2023-04-22T22:52:27.865Z,10.60
2023-04-22T22:54:54.964Z,12.03
2023-04-22T22:57:22.077Z,11.10
2023-04-22T22:59:49.010Z,9.60
2023-04-22T23:02:16.126Z,11.73
2023-04-22T23:04:43.602Z,10.40
2023-04-22T23:07:11.230Z,7.93
2023-04-22T23:09:41.684Z,9.93
2023-04-22T23:12:08.801Z,9.63
2023-04-22T23:14:42.739Z,9.10
2023-04-22T23:17:17.265Z,9.10
2023-04-22T23:19:44.821Z,12.03
2023-04-22T23:22:12.544Z,10.73
2023-04-22T23:24:40.307Z,10.37
2023-04-22T23:27:07.871Z,9.00
2023-04-22T23:29:36.875Z,9.10
2023-04-22T23:32:05.488Z,10.27
2023-04-22T23:34:35.102Z,8.43
2023-04-22T23:37:06.100Z,10.87
2023-04-22T23:39:33.077Z,8.80
2023-04-22T23:42:00.092Z,9.43
2023-04-22T23:44:27.154Z,13.47
2023-04-22T23:46:54.069Z,11.43
2023-04-22T23:49:21.327Z,9.80
2023-04-22T23:51:49.224Z,9.13
2023-04-22T23:54:17.527Z,10.50
2023-04-22T23:56:44.864Z,8.00
2023-04-22T23:59:12.074Z,9.47
